Time;durP1;ratioP1;P1;durP2;ratioP2;P2;SDS_P1;SDS_P2;PMS_P1;PMS_P2;Temp;Humidity;BMP_temperature;BMP_pressure;BME280_temperature;BME280_humidity;BME280_pressure;Samples;Min_cycle;Max_cycle;Signal;HPM_P1;HPM_P2
2022/08/17 00:01:59;;;;;;;28.85;23.77;;;21.10;99.90;;;;;;4998810;28;20037;-81
2022/08/17 00:04:25;;;;;;;28.08;24.83;;;21.10;99.90;;;;;;4994799;28;20080;-81
2022/08/17 00:06:52;;;;;;;29.98;24.90;;;21.10;99.90;;;;;;4999347;28;20659;-81
2022/08/17 00:09:18;;;;;;;29.35;25.38;;;21.00;99.90;;;;;;5022991;28;20405;-81
2022/08/17 00:11:44;;;;;;;;;;;21.00;99.90;;;;;;4988498;28;20449;-82
2022/08/17 00:14:16;;;;;;;32.30;27.00;;;20.90;99.90;;;;;;4996859;28;19987;-81
2022/08/17 00:16:50;;;;;;;34.33;28.10;;;20.90;99.90;;;;;;4998681;28;20033;-81
2022/08/17 00:19:21;;;;;;;33.33;29.05;;;20.80;99.90;;;;;;4999417;28;20101;-81
2022/08/17 00:21:49;;;;;;;30.08;25.70;;;20.70;99.90;;;;;;5025586;28;20068;-81
2022/08/17 00:24:16;;;;;;;33.50;27.65;;;20.70;99.90;;;;;;5013360;28;20507;-81
2022/08/17 00:26:42;;;;;;;33.40;27.30;;;20.70;99.90;;;;;;4980618;28;20046;-81
2022/08/17 00:29:08;;;;;;;32.88;27.38;;;20.70;99.90;;;;;;4981159;28;20053;-81
2022/08/17 00:31:35;;;;;;;35.38;28.33;;;20.60;99.90;;;;;;5017647;28;20041;-81
2022/08/17 00:34:02;;;;;;;32.30;27.30;;;20.60;99.90;;;;;;4986431;28;20546;-82
2022/08/17 00:36:28;;;;;;;32.05;26.70;;;20.50;99.90;;;;;;4988312;28;20069;-81
2022/08/17 00:38:54;;;;;;;35.83;29.58;;;20.60;99.90;;;;;;4990500;28;20048;-81
2022/08/17 00:41:23;;;;;;;31.30;26.85;;;20.60;99.90;;;;;;5004427;28;20033;-81
2022/08/17 00:43:53;;;;;;;38.95;30.98;;;20.60;99.90;;;;;;5019710;28;20533;-81
2022/08/17 00:46:27;;;;;;;33.50;28.60;;;20.50;99.90;;;;;;5020249;28;20041;-81
2022/08/17 00:48:53;;;;;;;32.70;28.13;;;20.50;99.90;;;;;;5010528;28;20046;-81
2022/08/17 00:51:30;;;;;;;36.15;30.50;;;20.50;99.90;;;;;;4990119;28;20244;-81
2022/08/17 00:54:08;;;;;;;38.35;32.38;;;20.50;99.90;;;;;;5003930;28;20050;-81
2022/08/17 00:56:39;;;;;;;37.80;32.25;;;20.40;99.90;;;;;;5023058;28;20131;-81
2022/08/17 00:59:07;;;;;;;39.63;31.42;;;20.30;99.90;;;;;;5004303;28;20033;-81
2022/08/17 01:01:33;;;;;;;38.08;31.55;;;20.30;99.90;;;;;;5004385;28;20140;-81
2022/08/17 01:04:01;;;;;;;37.88;30.48;;;20.30;99.90;;;;;;5020313;28;20037;-81
2022/08/17 01:06:28;;;;;;;35.33;30.48;;;20.30;99.90;;;;;;4985220;28;20046;-81
2022/08/17 01:08:55;;;;;;;35.33;29.58;;;20.30;99.90;;;;;;5009707;28;20038;-81
2022/08/17 01:11:21;;;;;;;33.13;28.17;;;20.30;99.90;;;;;;4997022;28;20374;-81
2022/08/17 01:13:47;;;;;;;39.08;31.63;;;20.20;99.90;;;;;;4999109;28;20052;-81
2022/08/17 01:16:28;;;;;;;38.53;31.15;;;20.20;99.90;;;;;;4985691;28;20038;-81
2022/08/17 01:19:01;;;;;;;38.50;31.00;;;20.20;99.90;;;;;;5004214;28;20033;-81
2022/08/17 01:21:37;;;;;;;37.22;29.77;;;20.10;99.90;;;;;;5018042;28;20038;-81
2022/08/17 01:24:04;;;;;;;36.92;29.85;;;20.10;99.90;;;;;;4999909;28;20034;-81
2022/08/17 01:26:31;;;;;;;;;;;20.10;99.90;;;;;;4982623;28;20134;-81
2022/08/17 01:28:58;;;;;;;36.83;29.70;;;20.00;99.90;;;;;;4993302;28;19964;-81
2022/08/17 01:31:29;;;;;;;38.60;30.75;;;20.00;99.90;;;;;;4988169;28;20038;-81
2022/08/17 01:33:58;;;;;;;39.22;30.95;;;20.00;99.90;;;;;;5001987;28;20120;-81
2022/08/17 01:36:24;;;;;;;40.50;32.90;;;20.00;99.90;;;;;;5006549;28;20349;-81
2022/08/17 01:38:49;;;;;;;35.80;28.83;;;20.00;99.90;;;;;;4998027;28;20053;-81
2022/08/17 01:41:16;;;;;;;41.10;30.40;;;20.10;99.90;;;;;;5004995;28;20396;-81
2022/08/17 01:44:03;;;;;;;37.70;30.38;;;20.10;99.90;;;;;;5012712;28;20072;-81
2022/08/17 01:46:32;;;;;;;40.38;31.88;;;20.10;99.90;;;;;;5005474;28;20042;-82
2022/08/17 01:48:59;;;;;;;36.33;29.55;;;20.10;99.90;;;;;;4998511;28;20637;-81
2022/08/17 01:51:31;;;;;;;35.80;28.10;;;20.10;99.90;;;;;;5005503;28;20037;-81
2022/08/17 01:54:00;;;;;;;38.50;30.13;;;20.00;99.90;;;;;;5016417;28;20065;-81
2022/08/17 01:56:28;;;;;;;35.35;28.73;;;20.00;99.90;;;;;;5004738;28;20130;-81
2022/08/17 01:58:54;;;;;;;34.50;28.20;;;20.00;99.90;;;;;;5009894;28;20454;-81
2022/08/17 02:01:23;;;;;;;38.22;29.63;;;20.00;99.90;;;;;;5006730;28;20041;-81
2022/08/17 02:03:49;;;;;;;37.38;29.95;;;20.00;99.90;;;;;;5009447;28;20108;-81
2022/08/17 02:06:15;;;;;;;35.63;28.65;;;20.00;99.90;;;;;;4998002;28;20125;-81
2022/08/17 02:08:40;;;;;;;36.83;28.45;;;20.00;99.90;;;;;;5023223;28;20477;-82
2022/08/17 02:11:14;;;;;;;34.50;28.50;;;20.00;99.90;;;;;;4983657;28;20042;-82
2022/08/17 02:13:41;;;;;;;37.78;30.02;;;20.00;99.90;;;;;;5017553;28;20049;-81
2022/08/17 02:16:07;;;;;;;38.67;29.90;;;20.00;99.90;;;;;;5004663;28;20090;-81
2022/08/17 02:18:33;;;;;;;39.25;30.40;;;20.00;99.90;;;;;;4991071;28;20424;-81
2022/08/17 02:20:59;;;;;;;40.75;33.38;;;19.90;99.90;;;;;;5002394;28;20034;-81
2022/08/17 02:23:26;;;;;;;;;;;19.90;99.90;;;;;;5007006;28;20477;-81
2022/08/17 02:25:53;;;;;;;38.25;30.45;;;19.80;99.90;;;;;;5023322;28;20371;-81
2022/08/17 02:28:19;;;;;;;43.33;31.13;;;19.80;99.90;;;;;;5006832;28;20493;-81
2022/08/17 02:30:45;;;;;;;44.75;33.97;;;19.80;99.90;;;;;;4990840;28;20053;-81
2022/08/17 02:33:10;;;;;;;54.00;33.88;;;19.70;99.90;;;;;;5006413;28;20045;-81
2022/08/17 02:35:37;;;;;;;45.30;33.28;;;19.70;99.90;;;;;;4990267;28;20056;-81
2022/08/17 02:38:05;;;;;;;42.60;30.70;;;19.70;99.90;;;;;;5024127;28;20132;-82
2022/08/17 02:40:32;;;;;;;50.50;32.03;;;19.70;99.90;;;;;;4987890;28;20048;-81
2022/08/17 02:42:57;;;;;;;66.03;31.73;;;19.70;99.90;;;;;;5003842;28;20069;-81
2022/08/17 02:45:24;;;;;;;42.83;29.02;;;19.70;99.90;;;;;;4987966;28;20120;-81
2022/08/17 02:47:50;;;;;;;55.88;30.13;;;19.60;99.90;;;;;;4999708;28;20049;-81
2022/08/17 02:50:20;;;;;;;103.47;31.33;;;19.60;99.90;;;;;;5015198;28;20103;-82
2022/08/17 02:52:46;;;;;;;42.97;27.88;;;19.50;99.90;;;;;;5008853;28;20111;-81
2022/08/17 02:55:28;;;;;;;44.95;29.75;;;19.50;99.90;;;;;;5009195;28;20055;-81
2022/08/17 02:57:55;;;;;;;37.55;27.70;;;19.50;99.90;;;;;;5005484;28;20046;-81
2022/08/17 03:00:32;;;;;;;57.25;30.95;;;19.40;99.90;;;;;;5029492;28;20052;-81
2022/08/17 03:02:59;;;;;;;40.97;28.90;;;19.40;99.90;;;;;;4998132;28;20034;-81
2022/08/17 03:05:26;;;;;;;47.80;29.52;;;19.40;99.90;;;;;;5027712;28;20033;-81
2022/08/17 03:07:52;;;;;;;46.05;29.90;;;19.40;99.90;;;;;;4984534;28;20065;-81
2022/08/17 03:10:18;;;;;;;47.60;30.60;;;19.40;99.90;;;;;;5003347;28;20087;-82
2022/08/17 03:12:45;;;;;;;36.03;28.73;;;19.40;99.90;;;;;;5025285;28;20041;-82
2022/08/17 03:15:15;;;;;;;35.63;26.45;;;19.40;99.90;;;;;;5002910;28;20117;-84
2022/08/17 03:17:41;;;;;;;57.03;29.92;;;19.40;99.90;;;;;;5028166;28;20489;-83
2022/08/17 03:20:07;;;;;;;40.65;27.85;;;19.50;99.90;;;;;;5019955;28;20132;-82
2022/08/17 03:22:43;;;;;;;45.03;29.02;;;19.40;99.90;;;;;;5005286;28;20030;-81
2022/08/17 03:25:11;;;;;;;43.77;26.77;;;19.40;99.90;;;;;;5000558;28;20037;-81
2022/08/17 03:27:38;;;;;;;45.97;28.00;;;19.40;99.90;;;;;;4995207;28;20080;-81
2022/08/17 03:30:04;;;;;;;;;;;19.40;99.90;;;;;;5022502;28;20037;-81
2022/08/17 03:32:37;;;;;;;35.40;26.03;;;19.30;99.90;;;;;;5012984;28;20276;-81
2022/08/17 03:35:04;;;;;;;33.72;24.92;;;19.30;99.90;;;;;;4998375;28;20331;-81
2022/08/17 03:37:29;;;;;;;39.05;26.08;;;19.20;99.90;;;;;;5002833;28;20038;-81
2022/08/17 03:39:55;;;;;;;34.58;25.65;;;19.20;99.90;;;;;;4981752;28;20041;-81
2022/08/17 03:42:25;;;;;;;35.20;25.90;;;19.10;99.90;;;;;;5006082;28;20120;-81
2022/08/17 03:44:53;;;;;;;34.60;27.42;;;19.10;99.90;;;;;;5000302;28;20038;-81
2022/08/17 03:58:26;;;;;;;33.13;27.15;;;19.10;99.90;;;;;;5000904;28;20042;-81
2022/08/17 04:00:54;;;;;;;35.03;27.17;;;19.20;99.90;;;;;;4993205;28;20048;-81
2022/08/17 04:03:20;;;;;;;40.20;29.55;;;19.10;99.90;;;;;;5002494;28;20080;-81
2022/08/17 04:05:45;;;;;;;40.25;29.63;;;19.10;99.90;;;;;;4998296;28;20128;-81
2022/08/17 04:08:11;;;;;;;39.38;29.05;;;19.10;99.90;;;;;;4995052;28;20046;-81
2022/08/17 04:10:37;;;;;;;39.53;28.70;;;19.20;99.90;;;;;;4990248;28;20048;-82
2022/08/17 04:13:03;;;;;;;37.78;27.92;;;19.20;99.90;;;;;;4995264;28;20469;-77
2022/08/17 04:15:32;;;;;;;34.90;28.33;;;19.20;99.90;;;;;;4995085;28;20037;-78
2022/08/17 04:17:58;;;;;;;36.53;28.55;;;19.20;99.90;;;;;;5008129;28;20042;-78
2022/08/17 04:20:23;;;;;;;;;;;19.20;99.90;;;;;;4992471;28;20216;-77
2022/08/17 04:23:10;;;;;;;40.45;29.45;;;19.20;99.90;;;;;;4993928;28;20092;-78
2022/08/17 04:25:38;;;;;;;37.97;28.30;;;19.20;99.90;;;;;;5027863;28;20121;-79
2022/08/17 04:28:04;;;;;;;37.67;28.98;;;19.20;99.90;;;;;;5008878;28;20477;-79
2022/08/17 04:30:33;;;;;;;41.72;30.20;;;19.20;99.90;;;;;;5028308;28;20041;-78
2022/08/17 04:33:05;;;;;;;40.08;29.08;;;19.20;99.90;;;;;;5027644;28;20204;-80
2022/08/17 04:35:40;;;;;;;37.60;28.95;;;19.20;99.90;;;;;;5011191;28;20040;-78
2022/08/17 04:38:08;;;;;;;38.15;29.88;;;19.20;99.90;;;;;;5026329;28;20030;-78
2022/08/17 04:43:21;;;;;;;46.45;33.35;;;19.20;99.90;;;;;;5008213;28;20089;-78
2022/08/17 04:45:54;;;;;;;42.72;32.55;;;19.20;99.90;;;;;;5005807;28;20132;-77
2022/08/17 04:48:20;;;;;;;40.85;30.70;;;19.20;99.90;;;;;;5018279;28;20485;-77
2022/08/17 04:50:48;;;;;;;45.67;32.67;;;19.20;99.90;;;;;;5027937;28;20041;-77
2022/08/17 04:53:15;;;;;;;40.78;31.48;;;19.20;99.90;;;;;;5027166;28;20057;-81
2022/08/17 04:55:42;;;;;;;43.38;32.40;;;19.20;99.90;;;;;;5022606;28;20353;-81
2022/08/17 04:58:08;;;;;;;41.17;31.42;;;19.20;99.90;;;;;;4994395;28;20072;-81
2022/08/17 05:00:35;;;;;;;49.35;33.25;;;19.20;99.90;;;;;;4992046;28;20077;-81
2022/08/17 05:03:01;;;;;;;48.85;34.83;;;19.20;99.90;;;;;;4987214;28;20045;-81
2022/08/17 05:05:36;;;;;;;49.35;34.20;;;19.20;99.90;;;;;;5002078;28;20378;-81
2022/08/17 05:08:04;;;;;;;51.15;34.63;;;19.20;99.90;;;;;;4998586;28;20042;-81
2022/08/17 05:10:35;;;;;;;54.10;36.15;;;19.20;99.90;;;;;;5031462;28;20222;-81
2022/08/17 05:13:23;;;;;;;46.80;33.95;;;19.30;99.90;;;;;;5023765;28;20402;-81
2022/08/17 05:15:53;;;;;;;46.25;33.20;;;19.30;99.90;;;;;;5017090;28;20045;-81
2022/08/17 05:18:19;;;;;;;44.85;31.75;;;19.40;99.90;;;;;;5014152;28;20045;-81
2022/08/17 05:20:45;;;;;;;42.78;30.90;;;19.40;99.90;;;;;;5004199;28;20397;-81
2022/08/17 05:23:15;;;;;;;41.05;31.92;;;19.40;99.90;;;;;;5009906;28;20038;-81
2022/08/17 05:25:44;;;;;;;41.55;31.63;;;19.50;99.90;;;;;;5031034;28;20041;-81
2022/08/17 05:28:10;;;;;;;41.65;31.70;;;19.40;99.90;;;;;;5012919;28;20037;-81
2022/08/17 05:30:38;;;;;;;42.78;31.75;;;19.40;99.90;;;;;;5024804;28;20037;-81
2022/08/17 05:33:08;;;;;;;43.72;33.42;;;19.40;99.90;;;;;;4998515;28;20045;-81
2022/08/17 05:35:37;;;;;;;39.97;31.30;;;19.40;99.90;;;;;;5012108;28;20092;-81
2022/08/17 05:38:03;;;;;;;41.25;30.63;;;19.40;99.90;;;;;;5000477;28;20030;-81
2022/08/17 05:40:29;;;;;;;42.97;33.55;;;19.50;99.90;;;;;;4992228;28;20120;-81
2022/08/17 05:43:06;;;;;;;40.15;31.67;;;19.50;99.90;;;;;;5006709;28;20096;-81
2022/08/17 05:45:32;;;;;;;43.17;32.20;;;19.50;99.90;;;;;;5005536;28;20038;-81
2022/08/17 05:47:58;;;;;;;44.65;31.73;;;19.50;99.90;;;;;;5011920;28;20428;-81
2022/08/17 05:50:40;;;;;;;46.03;32.03;;;19.60;99.90;;;;;;5006824;28;20049;-81
2022/08/17 05:53:14;;;;;;;46.30;33.03;;;19.60;99.90;;;;;;5017102;28;20065;-81
2022/08/17 05:55:49;;;;;;;47.75;33.65;;;19.60;99.90;;;;;;5004625;28;20140;-81
2022/08/17 05:58:39;;;;;;;42.03;30.67;;;19.60;99.90;;;;;;5021355;28;20128;-81
2022/08/17 06:01:42;;;;;;;46.45;34.25;;;19.60;99.90;;;;;;5028591;28;20037;-81
2022/08/17 06:04:10;;;;;;;46.83;33.10;;;19.60;99.90;;;;;;5003544;28;20048;-81
2022/08/17 06:06:49;;;;;;;42.05;31.50;;;19.60;99.90;;;;;;5003764;28;20138;-81
2022/08/17 06:09:35;;;;;;;40.53;31.92;;;19.60;99.90;;;;;;5020014;28;20137;-81
2022/08/17 06:12:20;;;;;;;42.58;31.73;;;19.60;99.90;;;;;;5003683;28;20041;-82
2022/08/17 06:15:13;;;;;;;42.50;31.42;;;19.70;99.90;;;;;;5026402;28;20040;-82
2022/08/17 06:17:40;;;;;;;44.40;32.90;;;19.70;99.90;;;;;;5005607;28;20187;-81
2022/08/17 06:20:11;;;;;;;42.17;34.83;;;19.70;99.90;;;;;;5011165;28;20075;-82
2022/08/17 06:22:43;;;;;;;43.08;34.00;;;19.70;99.90;;;;;;5009361;28;20037;-82
2022/08/17 06:25:28;;;;;;;44.05;33.47;;;19.70;99.90;;;;;;5002379;28;20060;-82
2022/08/17 06:28:13;;;;;;;48.72;35.65;;;19.70;99.90;;;;;;5022517;28;20038;-82
2022/08/17 06:31:03;;;;;;;42.03;32.65;;;19.70;99.90;;;;;;5005990;28;20049;-81
2022/08/17 06:33:32;;;;;;;44.90;35.17;;;19.70;99.90;;;;;;5002509;28;20512;-81
2022/08/17 06:36:33;;;;;;;43.40;33.58;;;19.60;99.90;;;;;;5009961;28;20060;-82
2022/08/17 06:39:08;;;;;;;47.17;35.15;;;19.70;99.90;;;;;;4989252;28;20076;-83
2022/08/17 06:41:40;;;;;;;48.97;36.35;;;19.70;99.90;;;;;;5003639;28;20060;-83
2022/08/17 06:44:22;;;;;;;45.63;35.28;;;19.80;99.90;;;;;;5021312;28;20101;-83
2022/08/17 06:46:52;;;;;;;46.15;35.78;;;19.70;99.90;;;;;;5016869;28;20045;-83
2022/08/17 06:49:30;;;;;;;47.45;35.08;;;19.80;99.90;;;;;;5006799;28;20322;-83
2022/08/17 06:52:21;;;;;;;50.00;37.22;;;19.90;99.90;;;;;;5023037;28;20046;-89
2022/08/17 06:55:10;;;;;;;54.42;39.35;;;19.90;99.90;;;;;;5002202;28;20048;-90
2022/08/17 06:57:42;;;;;;;46.80;36.63;;;19.80;99.90;;;;;;5018483;28;20041;-89
2022/08/17 07:00:18;;;;;;;54.53;40.42;;;19.80;99.90;;;;;;5025386;28;20037;-90
2022/08/17 07:02:56;;;;;;;51.77;39.40;;;19.90;99.90;;;;;;5006000;28;20037;-91
2022/08/17 07:05:27;;;;;;;49.30;37.75;;;19.90;99.90;;;;;;5022433;28;20767;-88
2022/08/17 07:08:05;;;;;;;55.58;41.00;;;19.90;99.90;;;;;;5003279;28;20049;-88
2022/08/17 07:10:41;;;;;;;52.85;39.60;;;19.90;99.90;;;;;;5007547;28;20037;-90
2022/08/17 07:13:20;;;;;;;51.92;40.03;;;20.00;99.90;;;;;;5010460;28;20033;-90
2022/08/17 07:15:50;;;;;;;56.53;40.42;;;20.10;99.90;;;;;;5031652;28;20037;-89
2022/08/17 07:18:16;;;;;;;55.58;41.40;;;20.10;99.90;;;;;;5016599;28;20058;-90
2022/08/17 07:20:46;;;;;;;54.28;41.53;;;20.20;99.90;;;;;;4998198;28;20037;-90
2022/08/17 07:23:29;;;;;;;48.50;37.88;;;20.30;99.90;;;;;;4995293;28;20042;-90
2022/08/17 07:26:06;;;;;;;49.50;39.28;;;20.30;99.90;;;;;;5006921;28;20042;-90
2022/08/17 07:28:33;;;;;;;51.40;39.85;;;20.40;99.90;;;;;;5030435;28;20075;-90
2022/08/17 07:30:59;;;;;;;53.03;40.25;;;20.50;99.90;;;;;;5016414;28;20132;-90
2022/08/17 07:33:28;;;;;;;54.65;39.63;;;20.50;99.90;;;;;;4981322;28;20123;-90
2022/08/17 07:35:56;;;;;;;56.72;42.42;;;20.50;99.90;;;;;;5016429;28;20044;-90
2022/08/17 07:38:30;;;;;;;54.30;40.17;;;20.50;99.90;;;;;;5004378;28;20472;-91
2022/08/17 07:41:03;;;;;;;52.08;37.70;;;20.50;99.90;;;;;;5009397;28;20034;-90
2022/08/17 07:43:36;;;;;;;52.95;40.75;;;20.50;99.90;;;;;;5011404;28;20520;-90
2022/08/17 07:49:07;;;;;;;48.53;37.30;;;20.60;99.90;;;;;;5030980;28;20124;-90
2022/08/17 07:51:34;;;;;;;51.63;38.45;;;20.70;99.90;;;;;;5012450;28;20037;-90
2022/08/17 07:54:14;;;;;;;48.17;38.22;;;20.70;99.90;;;;;;5031159;28;20745;-90
2022/08/17 07:56:53;;;;;;;49.53;38.45;;;20.80;99.90;;;;;;5016363;28;20057;-90
2022/08/17 07:59:33;;;;;;;50.95;38.55;;;21.00;99.90;;;;;;5007305;28;20445;-89
2022/08/17 08:02:06;;;;;;;50.33;38.35;;;21.10;99.90;;;;;;5009954;28;20037;-90
2022/08/17 08:04:39;;;;;;;53.58;40.42;;;21.20;99.90;;;;;;5021200;28;20038;-90
2022/08/17 08:07:24;;;;;;;50.28;38.40;;;21.40;99.90;;;;;;5013718;28;20099;-90
2022/08/17 08:10:10;;;;;;;50.85;38.40;;;21.60;99.90;;;;;;5028721;28;20041;-90
2022/08/17 08:12:47;;;;;;;55.63;39.92;;;21.70;99.90;;;;;;5030155;28;20432;-90
2022/08/17 08:15:24;;;;;;;55.30;39.83;;;21.70;99.90;;;;;;5028038;28;20064;-90
2022/08/17 08:17:51;;;;;;;53.70;39.60;;;21.70;99.90;;;;;;5008398;28;20068;-90
2022/08/17 08:20:22;;;;;;;61.30;41.40;;;21.70;99.90;;;;;;5024970;28;20068;-90
2022/08/17 08:23:01;;;;;;;51.50;38.30;;;21.90;99.90;;;;;;5013425;28;20405;-90
2022/08/17 08:25:49;;;;;;;48.17;36.25;;;21.90;99.90;;;;;;5027768;28;20045;-83
2022/08/17 08:28:42;;;;;;;47.47;35.42;;;21.90;99.90;;;;;;5026972;28;20068;-82
2022/08/17 08:31:49;;;;;;;46.88;34.72;;;21.90;99.90;;;;;;5011736;28;20512;-72
2022/08/17 08:34:23;;;;;;;49.72;36.53;;;22.10;99.90;;;;;;4990023;28;20069;-74
2022/08/17 08:37:14;;;;;;;43.25;34.47;;;22.20;99.90;;;;;;5026653;28;20057;-73
2022/08/17 08:40:02;;;;;;;42.15;34.15;;;22.50;99.90;;;;;;5027675;28;20037;-77
2022/08/17 08:42:55;;;;;;;39.25;31.60;;;22.60;99.90;;;;;;5018836;28;20058;-77
2022/08/17 08:45:37;;;;;;;42.58;33.65;;;22.50;99.90;;;;;;5016873;28;20489;-77
2022/08/17 08:48:33;;;;;;;38.53;31.67;;;22.40;99.90;;;;;;5021719;28;20038;-75
2022/08/17 08:51:26;;;;;;;39.58;32.55;;;22.40;99.90;;;;;;5022645;28;20045;-75
2022/08/17 08:54:04;;;;;;;36.88;30.38;;;22.40;99.90;;;;;;4987994;28;20045;-75
2022/08/17 08:56:56;;;;;;;35.90;29.33;;;22.40;99.90;;;;;;5042754;28;20040;-75
2022/08/17 08:59:44;;;;;;;33.17;27.77;;;22.40;99.90;;;;;;5005251;28;20053;-75
2022/08/17 09:02:16;;;;;;;35.33;28.92;;;22.60;99.90;;;;;;5018261;28;20045;-74
2022/08/17 09:05:06;;;;;;;29.13;26.00;;;22.80;99.90;;;;;;5026257;28;20120;-75
2022/08/17 09:08:03;;;;;;;31.13;26.33;;;22.80;99.90;;;;;;5027727;28;20116;-75
2022/08/17 09:10:48;;;;;;;30.90;26.50;;;22.80;99.90;;;;;;5011309;28;20538;-76
2022/08/17 09:13:20;;;;;;;30.85;27.42;;;22.90;99.90;;;;;;5023610;28;20048;-76
2022/08/17 09:15:57;;;;;;;29.92;26.73;;;22.90;99.90;;;;;;5024259;28;20042;-75
2022/08/17 09:18:38;;;;;;;34.83;28.75;;;22.80;99.90;;;;;;5010774;28;20042;-76
2022/08/17 09:21:06;;;;;;;30.55;26.73;;;22.80;99.90;;;;;;5017995;28;20575;-75
2022/08/17 09:24:03;;;;;;;30.42;27.17;;;23.00;99.90;;;;;;5010924;28;20045;-73
2022/08/17 09:26:39;;;;;;;30.67;27.33;;;23.10;99.90;;;;;;5020868;28;20055;-73
2022/08/17 09:29:09;;;;;;;28.33;25.20;;;23.30;99.90;;;;;;5027868;28;20053;-73
2022/08/17 09:31:52;;;;;;;29.98;24.17;;;23.50;99.90;;;;;;5027595;28;20037;-73
2022/08/17 09:34:27;;;;;;;27.98;24.38;;;23.90;99.90;;;;;;5008369;28;20049;-73
2022/08/17 09:37:09;;;;;;;29.15;25.05;;;24.20;99.90;;;;;;5025178;28;20049;-73
2022/08/17 09:39:43;;;;;;;23.08;20.55;;;24.30;99.90;;;;;;5020503;28;20033;-72
2022/08/17 09:42:21;;;;;;;21.67;19.25;;;24.30;99.90;;;;;;5023901;28;20041;-73
2022/08/17 09:45:09;;;;;;;25.55;20.42;;;24.40;99.90;;;;;;5027686;28;20489;-73
2022/08/17 09:48:06;;;;;;;23.02;20.52;;;24.30;99.90;;;;;;5028895;28;20414;-72
2022/08/17 09:50:52;;;;;;;23.87;20.70;;;24.20;99.90;;;;;;5019861;28;20049;-72
2022/08/17 09:53:18;;;;;;;25.95;22.75;;;24.00;99.90;;;;;;5030492;28;20292;-73
2022/08/17 09:55:50;;;;;;;;;;;23.90;99.90;;;;;;5024153;28;20053;-73
2022/08/17 09:58:31;;;;;;;23.13;20.33;;;23.70;99.90;;;;;;5031068;28;20293;-73
2022/08/17 10:01:35;;;;;;;25.08;22.05;;;23.60;99.90;;;;;;5014230;28;20037;-72
2022/08/17 10:04:30;;;;;;;29.80;24.42;;;23.60;99.90;;;;;;5029899;28;20033;-73
2022/08/17 10:07:32;;;;;;;25.55;22.80;;;23.40;99.90;;;;;;5030967;28;20044;-72
2022/08/17 10:10:24;;;;;;;27.10;24.15;;;23.50;99.90;;;;;;5020680;28;20064;-73
2022/08/17 10:13:13;;;;;;;31.58;24.20;;;23.30;99.90;;;;;;5030585;28;20053;-72
2022/08/17 10:16:00;;;;;;;28.80;23.35;;;23.30;99.90;;;;;;5028046;28;20037;-76
2022/08/17 10:19:00;;;;;;;28.95;24.58;;;23.20;99.90;;;;;;5027081;28;20038;-73
2022/08/17 10:27:27;;;;;;;25.13;22.40;;;23.00;99.90;;;;;;5024619;28;20046;-72
2022/08/17 10:29:58;;;;;;;26.50;22.73;;;23.10;99.90;;;;;;5017181;28;20435;-72
2022/08/17 10:32:33;;;;;;;24.95;22.25;;;23.10;99.90;;;;;;5015947;28;20060;-71
2022/08/17 10:35:24;;;;;;;28.00;23.23;;;23.10;99.90;;;;;;5023282;28;20486;-72
2022/08/17 10:38:24;;;;;;;26.75;23.85;;;23.20;99.90;;;;;;5003078;28;20041;-72
2022/08/17 10:40:54;;;;;;;28.27;24.05;;;23.30;99.90;;;;;;4999396;28;20132;-73
2022/08/17 10:43:44;;;;;;;25.48;22.83;;;23.30;99.90;;;;;;5017760;28;20578;-72
2022/08/17 10:46:53;;;;;;;25.00;22.38;;;23.40;99.90;;;;;;5028526;28;20107;-72
2022/08/17 10:49:21;;;;;;;25.90;22.58;;;23.50;99.90;;;;;;4998825;28;20060;-73
2022/08/17 10:51:53;;;;;;;26.85;23.98;;;23.70;99.90;;;;;;5030304;28;20037;-72
2022/08/17 10:54:44;;;;;;;25.92;22.95;;;23.80;99.90;;;;;;5022041;28;20057;-73
2022/08/17 10:57:34;;;;;;;25.35;22.58;;;23.70;99.90;;;;;;5030030;28;20053;-73
2022/08/17 11:00:13;;;;;;;24.92;20.83;;;23.70;99.90;;;;;;5027670;28;20057;-73
2022/08/17 11:02:51;;;;;;;23.83;21.30;;;23.70;99.90;;;;;;5019755;28;20042;-72
2022/08/17 11:05:29;;;;;;;24.77;21.52;;;23.80;99.90;;;;;;5023395;28;20044;-73
2022/08/17 11:08:32;;;;;;;23.98;20.50;;;23.90;99.90;;;;;;5029959;28;20389;-73
2022/08/17 11:11:11;;;;;;;22.90;17.95;;;24.10;99.90;;;;;;5015740;28;20068;-73
2022/08/17 11:13:55;;;;;;;18.55;15.20;;;24.50;99.90;;;;;;5008201;28;20049;-73
2022/08/17 11:16:36;;;;;;;20.25;17.50;;;24.60;99.90;;;;;;5024613;28;20463;-72
2022/08/17 11:19:08;;;;;;;21.38;17.08;;;24.80;99.90;;;;;;5030840;28;20029;-72
2022/08/17 11:21:58;;;;;;;18.15;16.17;;;24.90;99.90;;;;;;5029663;28;20171;-75
2022/08/17 11:24:31;;;;;;;17.48;15.30;;;25.10;99.90;;;;;;5029020;28;20103;-75
2022/08/17 11:27:25;;;;;;;16.45;13.82;;;25.10;99.90;;;;;;5027058;28;20552;-72
2022/08/17 11:30:04;;;;;;;16.77;13.30;;;25.20;99.90;;;;;;5028951;28;20077;-73
2022/08/17 11:32:43;;;;;;;15.07;12.93;;;25.30;99.90;;;;;;5029005;28;20401;-72
2022/08/17 11:35:20;;;;;;;16.35;13.60;;;25.30;99.90;;;;;;5029049;28;20037;-72
2022/08/17 11:37:55;;;;;;;16.77;12.60;;;25.20;99.90;;;;;;5029203;28;20041;-72
2022/08/17 11:40:28;;;;;;;17.30;12.45;;;25.20;99.90;;;;;;5022374;28;20046;-72
2022/08/17 11:43:02;;;;;;;15.32;12.80;;;25.40;99.90;;;;;;5005274;28;20517;-72
2022/08/17 11:45:33;;;;;;;16.13;11.27;;;25.30;99.90;;;;;;5021140;28;20045;-72
2022/08/17 11:51:33;;;;;;;11.35;10.20;;;25.50;99.90;;;;;;5027240;28;20092;-71
2022/08/17 11:54:08;;;;;;;13.38;11.20;;;25.50;99.90;;;;;;5028686;28;20126;-71
2022/08/17 11:56:42;;;;;;;13.23;10.32;;;25.20;99.90;;;;;;5028338;28;20049;-72
2022/08/17 11:59:38;;;;;;;11.73;10.48;;;25.30;99.90;;;;;;5028564;28;20120;-72
2022/08/17 12:02:33;;;;;;;11.77;9.18;;;25.30;99.90;;;;;;5023544;28;20037;-72
2022/08/17 12:05:20;;;;;;;12.43;9.82;;;25.20;99.90;;;;;;5018537;28;20077;-72
2022/08/17 12:07:51;;;;;;;;;;;25.40;99.90;;;;;;5042177;28;20040;-73
2022/08/17 12:10:20;;;;;;;13.75;9.00;;;25.60;99.90;;;;;;5016756;28;19924;-72
2022/08/17 12:12:48;;;;;;;10.52;9.40;;;25.80;99.90;;;;;;5020233;28;20033;-72
2022/08/17 12:15:27;;;;;;;13.77;10.38;;;25.80;99.90;;;;;;5000761;28;20043;-72
2022/08/17 12:17:55;;;;;;;12.95;11.32;;;25.80;99.90;;;;;;5016734;28;20396;-72
2022/08/17 12:20:30;;;;;;;15.68;11.80;;;25.80;99.90;;;;;;5001577;28;20033;-73
2022/08/17 12:23:17;;;;;;;13.75;12.27;;;25.50;99.90;;;;;;5016314;28;20037;-72
2022/08/17 12:25:49;;;;;;;;;;;25.30;99.90;;;;;;5017319;28;20564;-72
2022/08/17 12:28:30;;;;;;;13.80;11.85;;;25.20;99.90;;;;;;5018195;28;19917;-73
2022/08/17 12:31:01;;;;;;;14.57;12.68;;;25.30;99.90;;;;;;5018465;28;20046;-72
2022/08/17 12:33:27;;;;;;;16.15;12.23;;;25.00;99.90;;;;;;5016139;28;20441;-71
2022/08/17 12:36:01;;;;;;;;;;;24.90;99.90;;;;;;5019488;28;20041;-72
2022/08/17 12:38:30;;;;;;;12.85;10.35;;;24.90;99.90;;;;;;5017698;28;19957;-72
2022/08/17 12:40:57;;;;;;;12.60;10.02;;;24.80;99.90;;;;;;5026625;28;20041;-71
2022/08/17 12:43:29;;;;;;;12.13;9.52;;;24.90;99.90;;;;;;5028035;28;20091;-73
2022/08/17 12:45:59;;;;;;;11.00;9.07;;;24.70;99.90;;;;;;5019461;28;20069;-71
2022/08/17 12:48:27;;;;;;;11.55;10.32;;;24.70;99.90;;;;;;5007855;28;20057;-74
2022/08/17 12:51:01;;;;;;;12.20;10.55;;;24.60;99.90;;;;;;5009619;28;20038;-72
2022/08/17 12:53:30;;;;;;;14.32;11.30;;;24.50;99.90;;;;;;5020604;28;20057;-74
2022/08/17 12:56:01;;;;;;;13.68;11.55;;;24.50;99.90;;;;;;5027736;28;20048;-75
2022/08/17 12:58:33;;;;;;;14.20;11.77;;;24.50;99.90;;;;;;5025177;28;20426;-73
2022/08/17 13:01:08;;;;;;;14.25;11.90;;;24.60;99.90;;;;;;5027763;28;21307;-74
2022/08/17 13:03:51;;;;;;;14.00;12.57;;;24.70;99.90;;;;;;5020430;28;20042;-72
2022/08/17 13:06:32;;;;;;;15.10;12.30;;;24.50;99.90;;;;;;5017963;28;20049;-72
2022/08/17 13:09:10;;;;;;;14.73;11.38;;;24.60;99.90;;;;;;5013596;28;20457;-76
2022/08/17 13:11:46;;;;;;;13.48;11.35;;;24.50;99.90;;;;;;5025579;28;20349;-74
2022/08/17 13:14:17;;;;;;;13.70;11.27;;;24.40;99.90;;;;;;5027534;28;20100;-74
2022/08/17 13:16:48;;;;;;;12.75;10.82;;;24.40;99.90;;;;;;5007796;28;20092;-72
2022/08/17 13:19:19;;;;;;;13.10;11.43;;;24.40;99.90;;;;;;5018548;28;20042;-72
2022/08/17 13:21:47;;;;;;;12.93;11.60;;;24.40;99.90;;;;;;5018058;28;20073;-72
2022/08/17 13:24:33;;;;;;;12.40;11.10;;;24.20;99.90;;;;;;5016821;28;20496;-72
2022/08/17 13:27:01;;;;;;;12.98;10.15;;;24.10;99.90;;;;;;5020600;28;20072;-72
2022/08/17 13:29:32;;;;;;;12.85;9.93;;;24.10;99.90;;;;;;5020921;28;20132;-71
2022/08/17 13:32:06;;;;;;;11.75;10.05;;;23.90;99.90;;;;;;5022753;28;20046;-70
2022/08/17 13:34:32;;;;;;;12.88;8.68;;;24.00;99.90;;;;;;5020447;28;20046;-73